Pagina principală
METAR-TAF:

METAR-TAF

Aeroporturi :

Jayapura, Indonezia

Latitudine: 02-34-37S, longitudine: 140-30-58E, elevație: 88 m

Observații meteo curente

Raportul a fost făcut în urmă cu 38 de minute, la 15:00 UTC
Vânt calm
Temperatură 22°C
Umiditate 88%
Presiune 1011 hPa
Vizibilitate: 9000 m
Nori puțini la o înălțime de 1000 picior

METAR: WAJJ 251500Z 00000KT 9000 FEW010 22/20 Q1011 NOSIG

Ora: 22:38 (15:38 UTC)


TAF: lipsă

Observații și prognoze meteo pentru peste 4.000 de aeroporturi (rapoarte METAR și TAF).

Stațiile disponibile sunt reprezentate pe hartă prin puncte galbene și roșii.

Țineți indicatorul mouse-ului pe punctul dorit pentru a vedea denumirea stației.

Apoi, faceți clic pentru a vedea observațiile și prognozele meteorologice.

Pentru a schimba harta: Pentru mărire, faceți clic pe butoanele verzi cu cruce neagră; pentru micșorare, pe butonul verde cu o liniuță; pentru hărți învecinate, pe săgețile verzi.


METAR-TAF: